createdAt,value
2023-07-30T00:02:19.856Z,1.77
2023-07-30T00:04:48.832Z,2.00
2023-07-30T00:07:17.207Z,1.95
2023-07-30T00:09:47.248Z,1.80
2023-07-30T00:12:15.542Z,2.00
2023-07-30T00:14:44.439Z,2.00
2023-07-30T00:17:12.901Z,2.00
2023-07-30T00:19:41.207Z,1.65
2023-07-30T00:22:09.391Z,1.90
2023-07-30T00:24:37.597Z,2.00
2023-07-30T00:27:08.332Z,2.30
2023-07-30T00:29:36.558Z,2.10
2023-07-30T00:32:04.885Z,2.60
2023-07-30T00:34:33.014Z,2.03
2023-07-30T00:37:01.133Z,2.22
2023-07-30T00:39:29.275Z,2.30
2023-07-30T00:41:57.403Z,2.03
2023-07-30T00:44:27.320Z,2.17
2023-07-30T00:46:55.690Z,2.00
2023-07-30T00:49:24.045Z,2.00
2023-07-30T00:51:52.308Z,1.75
2023-07-30T00:54:20.712Z,2.00
2023-07-30T00:56:54.947Z,1.75
2023-07-30T00:59:23.747Z,1.83
2023-07-30T01:01:53.982Z,1.60
2023-07-30T01:04:22.287Z,1.77
2023-07-30T01:06:50.710Z,1.52
2023-07-30T01:09:19.115Z,1.85
2023-07-30T01:11:48.165Z,1.45
2023-07-30T01:14:20.118Z,1.90
2023-07-30T01:16:48.393Z,1.83
2023-07-30T01:19:18.023Z,1.80
2023-07-30T01:21:47.596Z,1.90
2023-07-30T01:24:15.822Z,1.83
2023-07-30T01:26:47.313Z,1.92
2023-07-30T01:29:19.906Z,1.98
2023-07-30T01:31:57.482Z,1.73
2023-07-30T01:34:29.554Z,1.85
2023-07-30T01:37:00.666Z,1.80
2023-07-30T01:39:30.028Z,1.67
2023-07-30T01:41:58.886Z,1.75
2023-07-30T01:44:27.102Z,1.65
2023-07-30T01:46:55.283Z,1.80
2023-07-30T01:49:23.648Z,1.90
2023-07-30T01:51:51.924Z,1.98
2023-07-30T01:54:21.533Z,1.90
2023-07-30T01:56:49.998Z,2.00
2023-07-30T01:59:18.117Z,1.88
2023-07-30T02:01:46.471Z,1.80
2023-07-30T02:04:14.625Z,1.88
2023-07-30T02:06:42.819Z,2.05
2023-07-30T02:09:12.081Z,2.10
2023-07-30T02:11:41.676Z,2.05
2023-07-30T02:14:11.653Z,1.98
2023-07-30T02:16:39.958Z,1.85
2023-07-30T02:19:08.101Z,1.70
2023-07-30T02:21:38.304Z,1.95
2023-07-30T02:24:11.059Z,2.00
2023-07-30T02:26:41.648Z,1.70
2023-07-30T02:29:09.926Z,1.90
2023-07-30T02:31:38.347Z,1.70
2023-07-30T02:34:08.151Z,1.52
2023-07-30T02:36:36.323Z,2.00
2023-07-30T02:39:05.239Z,1.80
2023-07-30T02:41:33.441Z,1.98
2023-07-30T02:44:03.063Z,1.83
2023-07-30T02:46:31.305Z,1.92
2023-07-30T02:48:59.571Z,2.08
2023-07-30T02:51:28.126Z,1.92
2023-07-30T02:54:00.584Z,1.83
2023-07-30T02:56:28.791Z,2.13
2023-07-30T02:58:57.143Z,2.00
2023-07-30T03:01:27.188Z,1.90
2023-07-30T03:03:55.598Z,2.38
2023-07-30T03:06:23.869Z,2.00
2023-07-30T03:08:52.148Z,1.95
2023-07-30T03:11:20.428Z,2.30
2023-07-30T03:13:48.582Z,2.15
2023-07-30T03:16:16.906Z,1.85
2023-07-30T03:18:48.843Z,2.25
2023-07-30T03:21:17.007Z,2.03
2023-07-30T03:23:45.578Z,2.15
2023-07-30T03:26:15.217Z,2.15
2023-07-30T03:28:43.606Z,1.98
2023-07-30T03:31:12.002Z,2.03
2023-07-30T03:33:44.739Z,1.80
2023-07-30T03:38:48.460Z,2.13
2023-07-30T03:41:16.757Z,2.10
2023-07-30T03:43:44.984Z,2.00
2023-07-30T03:46:13.212Z,2.22
2023-07-30T03:48:41.442Z,1.90
2023-07-30T03:51:10.067Z,2.00
2023-07-30T03:53:39.726Z,2.30
2023-07-30T03:56:07.977Z,2.00
2023-07-30T03:58:37.990Z,2.22
2023-07-30T04:01:08.190Z,1.90
2023-07-30T04:03:36.486Z,2.20
2023-07-30T04:06:06.133Z,2.30
2023-07-30T04:08:34.273Z,2.00
2023-07-30T04:11:03.879Z,2.10
2023-07-30T04:13:32.186Z,2.10
2023-07-30T04:16:00.843Z,2.25
2023-07-30T04:18:28.929Z,2.28
2023-07-30T04:20:57.621Z,2.28
2023-07-30T04:23:25.788Z,2.05
2023-07-30T04:25:54.202Z,2.00
2023-07-30T04:28:24.372Z,2.10
2023-07-30T04:30:52.798Z,2.25
2023-07-30T04:33:23.933Z,2.00
2023-07-30T04:35:52.215Z,2.28
2023-07-30T04:38:20.438Z,2.40
2023-07-30T04:40:48.679Z,2.30
2023-07-30T04:43:18.720Z,2.17
2023-07-30T04:45:48.277Z,2.10
2023-07-30T04:48:16.514Z,2.33
2023-07-30T04:50:47.745Z,1.90
2023-07-30T04:53:17.252Z,2.17
2023-07-30T04:55:45.411Z,2.10
2023-07-30T04:58:13.840Z,1.90
2023-07-30T05:00:42.061Z,2.20
2023-07-30T05:03:12.923Z,2.22
2023-07-30T05:05:41.190Z,2.20
2023-07-30T05:08:09.453Z,2.20
2023-07-30T05:10:37.674Z,1.98
2023-07-30T05:13:05.940Z,2.15
2023-07-30T05:15:34.154Z,2.00
2023-07-30T05:18:02.585Z,2.10
2023-07-30T05:20:32.263Z,2.05
2023-07-30T05:23:01.055Z,1.95
2023-07-30T05:25:34.986Z,2.00
2023-07-30T05:28:03.504Z,2.00
2023-07-30T05:30:31.795Z,2.00
2023-07-30T05:33:00.139Z,2.30
2023-07-30T05:35:29.214Z,2.17
2023-07-30T05:38:00.979Z,1.95
2023-07-30T05:40:29.256Z,2.00
2023-07-30T05:42:57.444Z,2.20
2023-07-30T05:45:25.664Z,2.00
2023-07-30T05:47:53.808Z,2.22
2023-07-30T05:50:22.070Z,1.98
2023-07-30T05:52:50.200Z,2.40
2023-07-30T05:55:19.922Z,2.00
2023-07-30T05:57:48.070Z,2.05
2023-07-30T06:00:18.887Z,2.28
2023-07-30T06:02:47.114Z,2.20
2023-07-30T06:05:15.277Z,2.55
2023-07-30T06:07:43.548Z,2.53
2023-07-30T06:10:12.079Z,2.40
2023-07-30T06:12:41.678Z,2.25
2023-07-30T06:15:12.093Z,2.10
2023-07-30T06:17:40.377Z,2.03
2023-07-30T06:20:10.300Z,2.00
2023-07-30T06:22:38.739Z,2.30
2023-07-30T06:25:08.037Z,2.17
2023-07-30T06:27:36.217Z,2.20
2023-07-30T06:30:10.544Z,2.45
2023-07-30T06:32:40.363Z,2.55
2023-07-30T06:35:09.976Z,2.72
2023-07-30T06:37:38.332Z,3.05
2023-07-30T06:40:07.813Z,2.80
2023-07-30T06:42:36.558Z,3.00
2023-07-30T06:45:07.203Z,3.22
2023-07-30T06:47:36.788Z,2.65
2023-07-30T06:50:09.503Z,2.60
2023-07-30T06:55:09.445Z,2.60
2023-07-30T06:57:41.208Z,2.35
2023-07-30T07:00:19.978Z,2.50
2023-07-30T07:02:48.337Z,2.80
2023-07-30T07:05:17.350Z,2.50
2023-07-30T07:07:45.920Z,2.60
2023-07-30T07:10:14.590Z,2.53
2023-07-30T07:12:43.230Z,2.40
2023-07-30T07:15:13.284Z,2.35
2023-07-30T07:17:42.026Z,2.70
2023-07-30T07:20:12.267Z,2.50
2023-07-30T07:22:40.487Z,2.25
2023-07-30T07:25:09.480Z,2.17
2023-07-30T07:27:37.571Z,2.28
2023-07-30T07:30:06.172Z,2.13
2023-07-30T07:32:39.368Z,2.10
2023-07-30T07:35:08.831Z,2.20
2023-07-30T07:37:37.019Z,2.08
2023-07-30T07:40:05.862Z,2.03
2023-07-30T07:42:34.075Z,2.17
2023-07-30T07:45:02.444Z,2.20
2023-07-30T07:47:30.720Z,2.28
2023-07-30T07:50:00.450Z,2.08
2023-07-30T07:52:29.733Z,2.10
2023-07-30T07:54:58.102Z,2.33
2023-07-30T07:57:26.513Z,2.13
2023-07-30T07:59:54.742Z,2.35
2023-07-30T08:02:23.030Z,2.40
2023-07-30T08:04:51.329Z,2.40
2023-07-30T08:07:20.873Z,2.08
2023-07-30T08:09:49.016Z,2.80
2023-07-30T08:12:17.208Z,2.28
2023-07-30T08:14:45.407Z,2.28
2023-07-30T08:17:16.273Z,2.05
2023-07-30T08:19:44.377Z,1.95
2023-07-30T08:22:12.644Z,2.25
2023-07-30T08:24:42.099Z,2.25
2023-07-30T08:27:10.317Z,2.47
2023-07-30T08:29:39.715Z,2.50
2023-07-30T08:32:27.462Z,2.40
2023-07-30T08:35:08.626Z,2.50
2023-07-30T08:37:36.773Z,2.35
2023-07-30T08:40:07.530Z,2.20
2023-07-30T08:42:35.934Z,2.17
2023-07-30T08:45:08.299Z,2.28
2023-07-30T08:47:36.597Z,2.00
2023-07-30T08:50:05.248Z,2.40
2023-07-30T08:52:37.344Z,2.13
2023-07-30T08:55:08.376Z,2.00
2023-07-30T08:57:38.208Z,2.17
2023-07-30T09:00:10.349Z,2.20
2023-07-30T09:02:42.175Z,2.20
2023-07-30T09:05:11.032Z,2.30
2023-07-30T09:07:39.470Z,2.08
2023-07-30T09:10:09.696Z,2.20
2023-07-30T09:12:40.871Z,2.30
2023-07-30T09:15:10.482Z,2.03
2023-07-30T09:17:39.280Z,2.33
2023-07-30T09:20:08.801Z,2.33
2023-07-30T09:22:41.620Z,2.38
2023-07-30T09:25:12.522Z,2.35
2023-07-30T09:27:40.631Z,3.85
2023-07-30T09:30:09.847Z,3.08
2023-07-30T09:32:38.705Z,3.50
2023-07-30T09:35:08.828Z,3.67
2023-07-30T09:37:39.940Z,4.22
2023-07-30T09:40:09.660Z,4.97
2023-07-30T09:42:41.174Z,5.25
2023-07-30T09:45:18.453Z,5.30
2023-07-30T09:47:50.342Z,4.97
2023-07-30T09:50:19.064Z,5.10
2023-07-30T09:52:47.795Z,5.07
2023-07-30T09:55:19.848Z,4.60
2023-07-30T09:57:49.665Z,4.32
2023-07-30T10:00:17.995Z,4.60
2023-07-30T10:02:49.414Z,4.60
2023-07-30T10:05:22.154Z,4.53
2023-07-30T10:10:22.136Z,4.88
2023-07-30T10:12:53.492Z,4.45
2023-07-30T10:15:24.529Z,4.43
2023-07-30T10:17:53.572Z,5.00
2023-07-30T10:20:26.485Z,4.32
2023-07-30T10:22:56.079Z,5.22
2023-07-30T10:25:25.317Z,4.55
2023-07-30T10:27:55.143Z,4.50
2023-07-30T10:30:23.585Z,3.75
2023-07-30T10:33:05.417Z,4.13
2023-07-30T10:35:47.183Z,4.57
2023-07-30T10:38:18.414Z,4.43
2023-07-30T10:41:03.399Z,4.32
2023-07-30T10:43:36.084Z,4.47
2023-07-30T10:48:36.213Z,4.60
2023-07-30T10:51:06.620Z,4.57
2023-07-30T10:53:37.038Z,4.75
2023-07-30T10:56:06.344Z,4.53
2023-07-30T10:58:37.795Z,4.53
2023-07-30T11:01:06.655Z,4.38
2023-07-30T11:03:35.644Z,4.30
2023-07-30T11:06:05.171Z,4.57
2023-07-30T11:08:41.005Z,4.60
2023-07-30T11:11:10.902Z,4.95
2023-07-30T11:13:42.177Z,4.63
2023-07-30T11:16:11.765Z,4.90
2023-07-30T11:18:41.039Z,4.70
2023-07-30T11:21:10.498Z,4.38
2023-07-30T11:23:42.814Z,4.25
2023-07-30T11:26:15.208Z,4.35
2023-07-30T11:28:51.077Z,4.50
2023-07-30T11:31:21.585Z,4.50
2023-07-30T11:33:52.917Z,4.57
2023-07-30T11:36:23.837Z,4.47
2023-07-30T11:38:54.575Z,4.30
2023-07-30T11:41:24.387Z,4.25
2023-07-30T11:43:54.226Z,4.50
2023-07-30T11:46:23.937Z,4.03
2023-07-30T11:48:54.190Z,4.20
2023-07-30T11:51:25.149Z,4.30
2023-07-30T11:53:55.461Z,4.20
2023-07-30T11:56:25.288Z,3.83
2023-07-30T11:58:57.367Z,4.15
2023-07-30T12:01:27.682Z,3.95
2023-07-30T12:04:02.522Z,4.18
2023-07-30T12:06:41.375Z,4.13
2023-07-30T12:09:14.089Z,3.38
2023-07-30T12:14:18.848Z,3.20
2023-07-30T12:16:47.316Z,3.13
2023-07-30T12:19:15.534Z,3.05
2023-07-30T12:21:43.826Z,3.15
2023-07-30T12:24:12.203Z,3.70
2023-07-30T12:26:40.603Z,3.70
2023-07-30T12:29:08.948Z,3.40
2023-07-30T12:31:38.826Z,3.22
2023-07-30T12:34:07.222Z,2.80
2023-07-30T12:36:35.484Z,2.80
2023-07-30T12:39:03.770Z,3.00
2023-07-30T12:41:31.944Z,2.85
2023-07-30T12:44:00.313Z,3.10
2023-07-30T12:46:31.347Z,3.08
2023-07-30T12:49:04.134Z,2.65
2023-07-30T12:54:00.459Z,2.80
2023-07-30T12:56:28.803Z,2.65
2023-07-30T12:58:56.992Z,2.78
2023-07-30T13:01:25.665Z,3.30
2023-07-30T13:03:55.801Z,2.97
2023-07-30T13:06:25.493Z,3.30
2023-07-30T13:08:54.901Z,3.00
2023-07-30T13:11:23.301Z,2.47
2023-07-30T13:13:51.630Z,2.63
2023-07-30T13:16:19.877Z,2.88
2023-07-30T13:18:48.087Z,2.92
2023-07-30T13:21:16.358Z,2.95
2023-07-30T13:23:46.133Z,2.55
2023-07-30T13:26:14.332Z,2.65
2023-07-30T13:28:42.800Z,2.58
2023-07-30T13:31:11.797Z,2.80
2023-07-30T13:33:40.106Z,2.80
2023-07-30T13:36:09.550Z,2.60
2023-07-30T13:38:39.840Z,2.60
2023-07-30T13:41:09.437Z,2.88
2023-07-30T13:43:38.731Z,2.70
2023-07-30T13:46:06.994Z,3.00
2023-07-30T13:48:35.303Z,2.65
2023-07-30T13:51:04.461Z,2.95
2023-07-30T13:53:35.949Z,2.90
2023-07-30T13:56:04.257Z,2.92
2023-07-30T13:58:33.845Z,2.83
2023-07-30T14:01:02.085Z,2.60
2023-07-30T14:03:30.326Z,2.80
2023-07-30T14:05:58.912Z,2.53
2023-07-30T14:08:27.223Z,2.72
2023-07-30T14:10:55.472Z,2.47
2023-07-30T14:13:26.125Z,2.42
2023-07-30T14:16:00.647Z,2.60
2023-07-30T14:18:28.973Z,2.60
2023-07-30T14:20:57.348Z,2.20
2023-07-30T14:23:25.521Z,2.35
2023-07-30T14:25:53.651Z,2.70
2023-07-30T14:28:22.033Z,2.50
2023-07-30T14:30:50.408Z,2.30
2023-07-30T14:33:20.128Z,2.53
2023-07-30T14:35:48.477Z,2.28
2023-07-30T14:38:17.183Z,2.65
2023-07-30T14:40:45.382Z,2.50
2023-07-30T14:43:13.762Z,2.50
2023-07-30T14:45:41.946Z,2.78
2023-07-30T14:48:10.175Z,2.58
2023-07-30T14:50:39.882Z,2.20
2023-07-30T14:53:08.022Z,2.70
2023-07-30T14:55:36.265Z,2.58
2023-07-30T14:58:04.541Z,2.50
2023-07-30T15:00:32.908Z,2.63
2023-07-30T15:03:01.270Z,2.70
2023-07-30T15:05:29.545Z,2.47
2023-07-30T15:07:59.301Z,2.38
2023-07-30T15:10:27.726Z,2.13
2023-07-30T15:12:55.939Z,2.20
2023-07-30T15:15:24.900Z,2.38
2023-07-30T15:17:53.153Z,2.03
2023-07-30T15:20:22.350Z,2.15
2023-07-30T15:22:52.147Z,1.85
2023-07-30T15:25:22.018Z,1.70
2023-07-30T15:27:50.315Z,2.05
2023-07-30T15:30:18.736Z,2.15
2023-07-30T15:32:47.196Z,2.00
2023-07-30T15:35:16.369Z,2.15
2023-07-30T15:37:44.719Z,2.15
2023-07-30T15:40:14.353Z,2.00
2023-07-30T15:42:50.157Z,2.20
2023-07-30T15:45:18.652Z,1.90
2023-07-30T15:47:47.115Z,2.00
2023-07-30T15:50:15.271Z,1.90
2023-07-30T15:52:43.480Z,1.85
2023-07-30T15:55:11.688Z,2.20
2023-07-30T15:57:40.080Z,2.10
2023-07-30T16:00:11.343Z,1.95
2023-07-30T16:02:39.606Z,2.00
2023-07-30T16:05:08.331Z,1.65
2023-07-30T16:07:37.685Z,2.30
2023-07-30T16:10:06.428Z,1.85
2023-07-30T16:12:34.706Z,1.55
2023-07-30T16:15:03.310Z,1.90
2023-07-30T16:17:32.978Z,1.70
2023-07-30T16:20:01.164Z,1.83
2023-07-30T16:22:29.318Z,1.80
2023-07-30T16:24:57.468Z,1.98
2023-07-30T16:27:28.013Z,1.90
2023-07-30T16:34:12.127Z,1.80
2023-07-30T16:36:46.450Z,1.90
2023-07-30T16:39:17.694Z,1.77
2023-07-30T16:41:48.970Z,2.10
2023-07-30T16:44:17.663Z,1.90
2023-07-30T16:46:51.184Z,2.00
2023-07-30T16:49:21.361Z,1.80
2023-07-30T16:51:51.280Z,2.10
2023-07-30T16:54:24.424Z,1.77
2023-07-30T16:56:53.013Z,1.90
2023-07-30T16:59:21.615Z,1.70
2023-07-30T17:01:50.725Z,1.85
2023-07-30T17:04:23.649Z,1.85
2023-07-30T17:06:53.279Z,1.77
2023-07-30T17:09:29.136Z,2.08
2023-07-30T17:11:58.026Z,2.10
2023-07-30T17:14:26.472Z,1.77
2023-07-30T17:17:04.907Z,1.90
2023-07-30T17:19:38.888Z,1.83
2023-07-30T17:22:08.115Z,1.95
2023-07-30T17:24:36.799Z,2.30
2023-07-30T17:27:07.101Z,1.90
2023-07-30T17:29:35.669Z,1.90
2023-07-30T17:32:05.645Z,2.10
2023-07-30T17:34:33.937Z,2.13
2023-07-30T17:37:04.292Z,2.28
2023-07-30T17:39:37.021Z,2.20
2023-07-30T17:42:06.058Z,2.10
2023-07-30T17:44:34.233Z,2.00
2023-07-30T17:47:02.661Z,2.03
2023-07-30T17:49:30.966Z,1.98
2023-07-30T17:51:59.199Z,2.08
2023-07-30T17:54:29.137Z,1.92
2023-07-30T17:56:57.314Z,1.90
2023-07-30T17:59:26.846Z,2.08
2023-07-30T18:01:55.306Z,1.83
2023-07-30T18:04:23.618Z,1.63
2023-07-30T18:06:52.082Z,2.00
2023-07-30T18:09:20.357Z,2.15
2023-07-30T18:11:49.981Z,1.83
2023-07-30T18:14:18.178Z,1.85
2023-07-30T18:16:46.442Z,2.10
2023-07-30T18:19:14.667Z,2.05
2023-07-30T18:21:42.918Z,2.00
2023-07-30T18:24:11.213Z,2.00
2023-07-30T18:26:43.088Z,1.85
2023-07-30T18:29:12.824Z,2.03
2023-07-30T18:31:41.272Z,1.98
2023-07-30T18:34:09.550Z,2.10
2023-07-30T18:36:37.955Z,1.95
2023-07-30T18:39:06.398Z,2.00
2023-07-30T18:41:34.922Z,1.80
2023-07-30T18:44:03.164Z,1.90
2023-07-30T18:46:32.883Z,1.90
2023-07-30T18:49:01.176Z,1.80
2023-07-30T18:51:29.398Z,1.90
2023-07-30T18:53:57.649Z,1.85
2023-07-30T18:56:25.973Z,1.90
2023-07-30T18:58:54.526Z,1.90
2023-07-30T19:01:23.027Z,1.95
2023-07-30T19:03:52.770Z,1.90
2023-07-30T19:06:21.002Z,1.90
2023-07-30T19:08:49.434Z,1.80
2023-07-30T19:11:18.018Z,1.90
2023-07-30T19:13:46.264Z,1.58
2023-07-30T19:16:14.663Z,1.85
2023-07-30T19:18:42.859Z,1.80
2023-07-30T19:21:12.489Z,1.65
2023-07-30T19:23:41.700Z,1.83
2023-07-30T19:26:10.204Z,1.70
2023-07-30T19:28:38.589Z,1.77
2023-07-30T19:31:08.404Z,1.70
2023-07-30T19:33:39.674Z,1.80
2023-07-30T19:36:08.102Z,1.60
2023-07-30T19:38:37.947Z,1.75
2023-07-30T19:41:18.565Z,1.77
2023-07-30T19:43:54.370Z,1.65
2023-07-30T19:46:22.683Z,1.63
2023-07-30T19:48:51.552Z,1.65
2023-07-30T19:51:20.279Z,1.48
2023-07-30T19:53:49.943Z,1.65
2023-07-30T19:56:18.469Z,1.90
2023-07-30T19:58:46.732Z,1.67
2023-07-30T20:01:15.047Z,1.70
2023-07-30T20:03:46.536Z,1.90
2023-07-30T20:06:17.126Z,1.73
2023-07-30T20:08:46.130Z,1.88
2023-07-30T20:11:17.598Z,1.50
2023-07-30T20:13:45.928Z,1.70
2023-07-30T20:16:17.159Z,1.60
2023-07-30T20:18:45.538Z,1.60
2023-07-30T20:21:14.201Z,1.85
2023-07-30T20:23:42.473Z,1.88
2023-07-30T20:26:16.106Z,1.70
2023-07-30T20:28:45.484Z,1.50
2023-07-30T20:31:14.247Z,1.90
2023-07-30T20:33:42.665Z,1.80
2023-07-30T20:36:10.964Z,1.45
2023-07-30T20:38:39.311Z,1.67
2023-07-30T20:41:07.676Z,1.63
2023-07-30T20:43:42.147Z,1.45
2023-07-30T20:46:11.550Z,1.60
2023-07-30T20:48:43.258Z,1.50
2023-07-30T20:51:11.993Z,1.73
2023-07-30T20:53:40.110Z,1.80
2023-07-30T20:56:08.465Z,1.40
2023-07-30T20:58:38.111Z,1.67
2023-07-30T21:01:06.344Z,1.50
2023-07-30T21:03:34.655Z,1.70
2023-07-30T21:06:02.917Z,1.70
2023-07-30T21:08:31.853Z,1.60
2023-07-30T21:11:00.007Z,1.70
2023-07-30T21:13:28.154Z,1.40
2023-07-30T21:16:03.621Z,1.63
2023-07-30T21:18:31.787Z,1.80
2023-07-30T21:20:59.950Z,1.60
2023-07-30T21:23:28.175Z,1.60
2023-07-30T21:25:56.443Z,1.70
2023-07-30T21:28:24.725Z,1.38
2023-07-30T21:31:06.904Z,1.60
2023-07-30T21:33:37.600Z,1.63
2023-07-30T21:36:06.931Z,1.60
2023-07-30T21:38:38.010Z,1.60
2023-07-30T21:41:06.287Z,1.50
2023-07-30T21:43:34.491Z,1.52
2023-07-30T21:46:04.412Z,1.70
2023-07-30T21:48:32.743Z,1.77
2023-07-30T21:51:01.865Z,1.65
2023-07-30T21:53:30.091Z,1.60
2023-07-30T21:55:58.828Z,1.33
2023-07-30T21:58:27.152Z,1.67
2023-07-30T22:00:56.178Z,1.60
2023-07-30T22:03:26.980Z,1.55
2023-07-30T22:05:55.182Z,1.67
2023-07-30T22:08:23.499Z,1.70
2023-07-30T22:10:51.821Z,1.42
2023-07-30T22:13:20.965Z,1.60
2023-07-30T22:15:49.599Z,1.55
2023-07-30T22:18:17.807Z,1.67
2023-07-30T22:20:47.381Z,1.60
2023-07-30T22:23:15.543Z,1.65
2023-07-30T22:25:43.632Z,1.50
2023-07-30T22:28:11.953Z,1.58
2023-07-30T22:30:41.770Z,1.58
2023-07-30T22:33:10.682Z,1.60
2023-07-30T22:35:38.900Z,1.52
2023-07-30T22:38:08.484Z,1.63
2023-07-30T22:40:36.711Z,1.70
2023-07-30T22:43:04.815Z,1.70
2023-07-30T22:45:33.544Z,1.70
2023-07-30T22:48:01.755Z,1.60
2023-07-30T22:50:30.690Z,1.70
2023-07-30T22:52:58.997Z,1.40
2023-07-30T22:55:28.944Z,1.80
2023-07-30T22:57:57.367Z,1.70
2023-07-30T23:00:25.722Z,1.92
2023-07-30T23:02:54.057Z,1.70
2023-07-30T23:05:22.465Z,1.75
2023-07-30T23:07:50.599Z,1.50
2023-07-30T23:10:20.859Z,1.55
2023-07-30T23:12:50.474Z,1.60
2023-07-30T23:15:19.128Z,1.48
2023-07-30T23:17:47.400Z,1.48
2023-07-30T23:20:15.896Z,1.85
2023-07-30T23:22:44.201Z,1.77
2023-07-30T23:25:12.434Z,1.83
2023-07-30T23:27:40.622Z,1.85
2023-07-30T23:30:10.806Z,1.50
2023-07-30T23:32:39.072Z,1.85
2023-07-30T23:35:08.144Z,1.40
2023-07-30T23:37:38.532Z,1.70
2023-07-30T23:40:07.861Z,1.88
2023-07-30T23:42:36.570Z,1.80
2023-07-30T23:45:05.181Z,1.70
2023-07-30T23:47:34.913Z,1.45
2023-07-30T23:50:03.150Z,1.73
2023-07-30T23:52:32.210Z,1.50
2023-07-30T23:55:00.664Z,1.80
2023-07-30T23:57:28.969Z,1.52
2023-07-30T23:59:57.208Z,1.75
